Piffard, New York
Current Conditions -  °F | °C
As of 5:54 PM on Monday 22 Dec 2014 (Local Time) from KDSV Reporting Station
Clear Clear  
Wind Chill: 25°   Ceiling: Unl
Heat Index: 33°   Visibility: 10mi
Dew Point: 25°   Wind: 9mph
Humidity: 72%   Direction: 150°SSE
Pressure: 30.11"   Gusts: NA
Location:  42.83°N, 77.85°W
Report Text: KDSV 222254Z AUTO 15008KT 10SM CLR 01/M04 A3011 RMK AO2 SLP213 T00061039
Loading
Personal Weather Stations






























Interactive Weather Map New forecast layout! Learn more

10-Day Weather Forecast

Advertisements
Track Severe Weather on mobile